Fishers Ferry, Pennsylvania
Current Conditions -  °F | °C
As of 2:53 PM on Thursday 30 Oct 2014 (Local Time) from KSEG Reporting Station
Overcast Overcast  
Wind Chill: 55°   Ceiling: 5000
Heat Index: 55°   Visibility: 10mi
Dew Point: 36°   Wind: 6mph
Humidity: 49%   Direction: 340°NNW
Pressure: 30.02"   Gusts: NA
Location:  40.83°N, 76.761°W
Report Text: KSEG 301853Z AUTO 34005KT 10SM OVC050 13/02 A3002 RMK AO2 SLP167 T01280022
Loading
Personal Weather Stations






























Interactive Weather Map
Tropical Storm Tracking
New forecast layout! Learn more

10-Day Weather Forecast

Advertisements
Track Severe Weather on mobile